sensor_id;sensor_type;location;lat;lon;timestamp;temperature;humidity
1415;DHT22;702;49.466;11.086;2023-05-19T00:02:18;9.80;62.70
1415;DHT22;702;49.466;11.086;2023-05-19T00:04:46;9.90;62.50
1415;DHT22;702;49.466;11.086;2023-05-19T00:07:17;9.90;62.30
1415;DHT22;702;49.466;11.086;2023-05-19T00:09:45;9.80;62.60
1415;DHT22;702;49.466;11.086;2023-05-19T00:12:13;9.70;62.50
1415;DHT22;702;49.466;11.086;2023-05-19T00:14:42;9.70;62.80
1415;DHT22;702;49.466;11.086;2023-05-19T00:17:11;9.80;62.70
1415;DHT22;702;49.466;11.086;2023-05-19T00:19:38;9.80;62.60
1415;DHT22;702;49.466;11.086;2023-05-19T00:22:06;9.90;62.50
1415;DHT22;702;49.466;11.086;2023-05-19T00:24:33;9.80;62.10
1415;DHT22;702;49.466;11.086;2023-05-19T00:27:01;9.80;62.40
1415;DHT22;702;49.466;11.086;2023-05-19T00:29:28;9.70;62.50
1415;DHT22;702;49.466;11.086;2023-05-19T00:31:55;9.70;62.30
1415;DHT22;702;49.466;11.086;2023-05-19T00:34:24;9.90;61.90
1415;DHT22;702;49.466;11.086;2023-05-19T00:36:51;9.90;62.10
1415;DHT22;702;49.466;11.086;2023-05-19T00:39:18;9.80;61.90
1415;DHT22;702;49.466;11.086;2023-05-19T00:41:46;9.80;62.10
1415;DHT22;702;49.466;11.086;2023-05-19T00:44:13;9.70;62.30
1415;DHT22;702;49.466;11.086;2023-05-19T00:46:40;9.80;62.40
1415;DHT22;702;49.466;11.086;2023-05-19T00:49:07;9.80;62.70
1415;DHT22;702;49.466;11.086;2023-05-19T00:51:36;9.80;62.60
1415;DHT22;702;49.466;11.086;2023-05-19T00:54:03;9.80;62.50
1415;DHT22;702;49.466;11.086;2023-05-19T00:56:31;9.70;62.80
1415;DHT22;702;49.466;11.086;2023-05-19T00:58:58;9.90;63.00
1415;DHT22;702;49.466;11.086;2023-05-19T01:01:26;9.90;63.20
1415;DHT22;702;49.466;11.086;2023-05-19T01:03:53;9.90;62.50
1415;DHT22;702;49.466;11.086;2023-05-19T01:06:23;9.80;62.60
1415;DHT22;702;49.466;11.086;2023-05-19T01:08:53;9.80;62.70
1415;DHT22;702;49.466;11.086;2023-05-19T01:11:22;9.90;62.50
1415;DHT22;702;49.466;11.086;2023-05-19T01:13:50;9.90;61.90
1415;DHT22;702;49.466;11.086;2023-05-19T01:16:23;10.00;61.10
1415;DHT22;702;49.466;11.086;2023-05-19T01:18:58;10.00;60.70
1415;DHT22;702;49.466;11.086;2023-05-19T01:21:55;10.10;60.60
1415;DHT22;702;49.466;11.086;2023-05-19T01:25:07;9.80;62.00
1415;DHT22;702;49.466;11.086;2023-05-19T01:28:24;9.70;62.40
1415;DHT22;702;49.466;11.086;2023-05-19T01:31:00;9.70;63.20
1415;DHT22;702;49.466;11.086;2023-05-19T01:33:29;9.80;63.00
1415;DHT22;702;49.466;11.086;2023-05-19T01:36:02;9.70;62.70
1415;DHT22;702;49.466;11.086;2023-05-19T01:38:33;9.70;63.00
1415;DHT22;702;49.466;11.086;2023-05-19T01:41:02;9.60;63.30
1415;DHT22;702;49.466;11.086;2023-05-19T01:43:30;9.60;63.80
1415;DHT22;702;49.466;11.086;2023-05-19T01:45:59;9.60;63.70
1415;DHT22;702;49.466;11.086;2023-05-19T01:48:28;9.60;63.60
1415;DHT22;702;49.466;11.086;2023-05-19T01:50:55;9.60;63.70
1415;DHT22;702;49.466;11.086;2023-05-19T01:53:22;9.70;64.10
1415;DHT22;702;49.466;11.086;2023-05-19T01:55:56;9.70;63.50
1415;DHT22;702;49.466;11.086;2023-05-19T01:58:30;9.60;64.00
1415;DHT22;702;49.466;11.086;2023-05-19T02:01:12;9.50;63.70
1415;DHT22;702;49.466;11.086;2023-05-19T02:03:52;9.50;64.10
1415;DHT22;702;49.466;11.086;2023-05-19T02:06:41;9.50;64.00
1415;DHT22;702;49.466;11.086;2023-05-19T02:09:15;9.60;64.20
1415;DHT22;702;49.466;11.086;2023-05-19T02:11:51;9.70;63.90
1415;DHT22;702;49.466;11.086;2023-05-19T02:14:23;9.80;63.70
1415;DHT22;702;49.466;11.086;2023-05-19T02:16:58;9.70;64.00
1415;DHT22;702;49.466;11.086;2023-05-19T02:19:27;9.70;63.50
1415;DHT22;702;49.466;11.086;2023-05-19T02:21:57;9.60;63.30
1415;DHT22;702;49.466;11.086;2023-05-19T02:24:24;9.50;63.80
1415;DHT22;702;49.466;11.086;2023-05-19T02:26:52;9.60;63.90
1415;DHT22;702;49.466;11.086;2023-05-19T02:29:20;9.80;63.50
1415;DHT22;702;49.466;11.086;2023-05-19T02:31:47;9.80;63.60
1415;DHT22;702;49.466;11.086;2023-05-19T02:34:16;9.70;63.50
1415;DHT22;702;49.466;11.086;2023-05-19T02:36:43;9.80;63.10
1415;DHT22;702;49.466;11.086;2023-05-19T02:39:15;9.80;62.90
1415;DHT22;702;49.466;11.086;2023-05-19T02:41:42;9.80;62.70
1415;DHT22;702;49.466;11.086;2023-05-19T02:44:09;9.70;62.80
1415;DHT22;702;49.466;11.086;2023-05-19T02:46:36;9.70;63.20
1415;DHT22;702;49.466;11.086;2023-05-19T02:49:04;9.60;63.70
1415;DHT22;702;49.466;11.086;2023-05-19T02:51:32;9.50;64.20
1415;DHT22;702;49.466;11.086;2023-05-19T02:53:59;9.50;64.60
1415;DHT22;702;49.466;11.086;2023-05-19T02:56:26;9.70;64.10
1415;DHT22;702;49.466;11.086;2023-05-19T02:58:53;9.70;63.90
1415;DHT22;702;49.466;11.086;2023-05-19T03:01:21;9.70;64.00
1415;DHT22;702;49.466;11.086;2023-05-19T03:03:48;9.70;64.30
1415;DHT22;702;49.466;11.086;2023-05-19T03:06:16;9.70;64.10
1415;DHT22;702;49.466;11.086;2023-05-19T03:08:44;9.80;64.50
1415;DHT22;702;49.466;11.086;2023-05-19T03:11:11;9.60;65.00
1415;DHT22;702;49.466;11.086;2023-05-19T03:13:39;9.60;65.30
1415;DHT22;702;49.466;11.086;2023-05-19T03:16:07;9.60;65.50
1415;DHT22;702;49.466;11.086;2023-05-19T03:18:34;9.70;65.50
1415;DHT22;702;49.466;11.086;2023-05-19T03:21:02;9.70;65.30
1415;DHT22;702;49.466;11.086;2023-05-19T03:23:29;9.70;65.60
1415;DHT22;702;49.466;11.086;2023-05-19T03:25:57;9.70;65.70
1415;DHT22;702;49.466;11.086;2023-05-19T03:28:26;9.70;65.60
1415;DHT22;702;49.466;11.086;2023-05-19T03:30:53;9.70;66.00
1415;DHT22;702;49.466;11.086;2023-05-19T03:33:20;9.70;66.00
1415;DHT22;702;49.466;11.086;2023-05-19T03:35:48;9.70;66.40
1415;DHT22;702;49.466;11.086;2023-05-19T03:38:17;9.80;66.00
1415;DHT22;702;49.466;11.086;2023-05-19T03:40:44;9.80;66.20
1415;DHT22;702;49.466;11.086;2023-05-19T03:43:13;9.80;66.50
1415;DHT22;702;49.466;11.086;2023-05-19T03:45:40;9.80;66.20
1415;DHT22;702;49.466;11.086;2023-05-19T03:48:08;10.00;64.70
1415;DHT22;702;49.466;11.086;2023-05-19T03:50:35;10.10;64.60
1415;DHT22;702;49.466;11.086;2023-05-19T03:53:02;10.10;64.60
1415;DHT22;702;49.466;11.086;2023-05-19T03:55:30;10.00;64.40
1415;DHT22;702;49.466;11.086;2023-05-19T03:57:57;10.00;65.10
1415;DHT22;702;49.466;11.086;2023-05-19T04:00:25;10.00;65.10
1415;DHT22;702;49.466;11.086;2023-05-19T04:02:52;10.20;64.80
1415;DHT22;702;49.466;11.086;2023-05-19T04:05:20;10.10;65.10
1415;DHT22;702;49.466;11.086;2023-05-19T04:07:47;10.20;65.40
1415;DHT22;702;49.466;11.086;2023-05-19T04:10:14;10.20;65.00
1415;DHT22;702;49.466;11.086;2023-05-19T04:12:41;10.20;65.60
1415;DHT22;702;49.466;11.086;2023-05-19T04:15:09;10.30;65.80
1415;DHT22;702;49.466;11.086;2023-05-19T04:17:38;10.30;65.30
1415;DHT22;702;49.466;11.086;2023-05-19T04:20:07;10.40;65.40
1415;DHT22;702;49.466;11.086;2023-05-19T04:22:35;10.50;65.20
1415;DHT22;702;49.466;11.086;2023-05-19T04:25:02;10.60;64.80
1415;DHT22;702;49.466;11.086;2023-05-19T04:27:29;10.80;64.50
1415;DHT22;702;49.466;11.086;2023-05-19T04:30:01;10.80;64.40
1415;DHT22;702;49.466;11.086;2023-05-19T04:32:28;10.80;64.00
1415;DHT22;702;49.466;11.086;2023-05-19T04:34:57;10.80;64.50
1415;DHT22;702;49.466;11.086;2023-05-19T04:37:25;10.70;65.10
1415;DHT22;702;49.466;11.086;2023-05-19T04:39:52;10.70;65.10
1415;DHT22;702;49.466;11.086;2023-05-19T04:42:19;10.80;65.60
1415;DHT22;702;49.466;11.086;2023-05-19T04:44:46;11.10;65.10
1415;DHT22;702;49.466;11.086;2023-05-19T04:47:16;11.20;64.30
1415;DHT22;702;49.466;11.086;2023-05-19T04:49:45;11.40;63.80
1415;DHT22;702;49.466;11.086;2023-05-19T04:52:14;11.40;63.20
1415;DHT22;702;49.466;11.086;2023-05-19T04:54:46;11.60;63.00
1415;DHT22;702;49.466;11.086;2023-05-19T04:57:13;11.70;62.90
1415;DHT22;702;49.466;11.086;2023-05-19T04:59:40;11.70;62.40
1415;DHT22;702;49.466;11.086;2023-05-19T05:02:08;11.70;62.30
1415;DHT22;702;49.466;11.086;2023-05-19T05:04:35;11.70;62.10
1415;DHT22;702;49.466;11.086;2023-05-19T05:07:05;11.90;62.10
1415;DHT22;702;49.466;11.086;2023-05-19T05:09:34;11.90;62.30
1415;DHT22;702;49.466;11.086;2023-05-19T05:12:02;12.10;61.90
1415;DHT22;702;49.466;11.086;2023-05-19T05:14:32;12.10;61.80
1415;DHT22;702;49.466;11.086;2023-05-19T05:17:01;12.20;61.60
1415;DHT22;702;49.466;11.086;2023-05-19T05:19:28;12.10;61.80
1415;DHT22;702;49.466;11.086;2023-05-19T05:21:56;12.00;62.00
1415;DHT22;702;49.466;11.086;2023-05-19T05:24:24;12.00;62.20
1415;DHT22;702;49.466;11.086;2023-05-19T05:26:53;11.90;62.30
1415;DHT22;702;49.466;11.086;2023-05-19T05:29:21;12.00;62.10
1415;DHT22;702;49.466;11.086;2023-05-19T05:31:48;12.00;61.90
1415;DHT22;702;49.466;11.086;2023-05-19T05:34:15;12.10;62.40
1415;DHT22;702;49.466;11.086;2023-05-19T05:36:42;12.30;62.60
1415;DHT22;702;49.466;11.086;2023-05-19T05:39:09;12.30;62.30
1415;DHT22;702;49.466;11.086;2023-05-19T05:41:36;12.70;61.00
1415;DHT22;702;49.466;11.086;2023-05-19T05:44:05;13.20;60.80
1415;DHT22;702;49.466;11.086;2023-05-19T05:46:32;13.90;59.80
1415;DHT22;702;49.466;11.086;2023-05-19T05:48:59;14.50;58.40
1415;DHT22;702;49.466;11.086;2023-05-19T05:51:28;15.30;56.30
1415;DHT22;702;49.466;11.086;2023-05-19T05:53:58;15.30;54.90
1415;DHT22;702;49.466;11.086;2023-05-19T05:56:26;15.30;54.30
1415;DHT22;702;49.466;11.086;2023-05-19T05:58:54;15.00;54.00
1415;DHT22;702;49.466;11.086;2023-05-19T06:01:22;14.60;54.10
1415;DHT22;702;49.466;11.086;2023-05-19T06:03:50;14.20;55.10
1415;DHT22;702;49.466;11.086;2023-05-19T06:06:17;14.80;54.80
1415;DHT22;702;49.466;11.086;2023-05-19T06:08:44;15.80;53.70
1415;DHT22;702;49.466;11.086;2023-05-19T06:11:11;16.10;52.30
1415;DHT22;702;49.466;11.086;2023-05-19T06:13:39;16.10;52.70
1415;DHT22;702;49.466;11.086;2023-05-19T06:16:07;15.70;52.40
1415;DHT22;702;49.466;11.086;2023-05-19T06:18:36;15.20;52.90
1415;DHT22;702;49.466;11.086;2023-05-19T06:21:03;15.00;53.40
1415;DHT22;702;49.466;11.086;2023-05-19T06:23:30;14.70;53.20
1415;DHT22;702;49.466;11.086;2023-05-19T06:25:58;14.20;53.60
1415;DHT22;702;49.466;11.086;2023-05-19T06:28:25;14.00;54.00
1415;DHT22;702;49.466;11.086;2023-05-19T06:30:52;14.00;54.20
1415;DHT22;702;49.466;11.086;2023-05-19T06:33:19;14.10;54.20
1415;DHT22;702;49.466;11.086;2023-05-19T06:35:48;14.20;54.10
1415;DHT22;702;49.466;11.086;2023-05-19T06:38:15;14.50;54.30
1415;DHT22;702;49.466;11.086;2023-05-19T06:40:43;14.90;54.00
1415;DHT22;702;49.466;11.086;2023-05-19T06:43:10;15.10;53.30
1415;DHT22;702;49.466;11.086;2023-05-19T06:45:37;15.00;53.40
1415;DHT22;702;49.466;11.086;2023-05-19T06:48:04;15.10;53.60
1415;DHT22;702;49.466;11.086;2023-05-19T06:50:31;15.30;53.10
1415;DHT22;702;49.466;11.086;2023-05-19T06:53:00;15.20;52.70
1415;DHT22;702;49.466;11.086;2023-05-19T06:55:27;15.10;52.70
1415;DHT22;702;49.466;11.086;2023-05-19T06:57:55;14.80;53.30
1415;DHT22;702;49.466;11.086;2023-05-19T07:00:22;14.80;53.30
1415;DHT22;702;49.466;11.086;2023-05-19T07:02:49;14.70;53.40
1415;DHT22;702;49.466;11.086;2023-05-19T07:05:17;14.90;53.70
1415;DHT22;702;49.466;11.086;2023-05-19T07:07:44;15.30;53.30
1415;DHT22;702;49.466;11.086;2023-05-19T07:10:13;15.60;53.20
1415;DHT22;702;49.466;11.086;2023-05-19T07:12:40;16.00;53.20
1415;DHT22;702;49.466;11.086;2023-05-19T07:15:08;16.20;52.80
1415;DHT22;702;49.466;11.086;2023-05-19T07:17:36;16.30;52.10
1415;DHT22;702;49.466;11.086;2023-05-19T07:20:04;16.30;51.80
1415;DHT22;702;49.466;11.086;2023-05-19T07:22:34;16.50;51.30
1415;DHT22;702;49.466;11.086;2023-05-19T07:25:03;16.40;50.90
1415;DHT22;702;49.466;11.086;2023-05-19T07:27:32;16.00;51.50
1415;DHT22;702;49.466;11.086;2023-05-19T07:30:00;16.20;51.70
1415;DHT22;702;49.466;11.086;2023-05-19T07:32:28;16.40;51.90
1415;DHT22;702;49.466;11.086;2023-05-19T07:34:56;16.60;51.70
1415;DHT22;702;49.466;11.086;2023-05-19T07:37:23;16.60;51.20
1415;DHT22;702;49.466;11.086;2023-05-19T07:39:50;16.70;51.30
1415;DHT22;702;49.466;11.086;2023-05-19T07:42:17;16.80;51.30
1415;DHT22;702;49.466;11.086;2023-05-19T07:44:46;16.70;51.10
1415;DHT22;702;49.466;11.086;2023-05-19T07:47:13;16.80;51.10
1415;DHT22;702;49.466;11.086;2023-05-19T07:49:40;16.80;51.10
1415;DHT22;702;49.466;11.086;2023-05-19T07:52:08;16.50;51.60
1415;DHT22;702;49.466;11.086;2023-05-19T07:54:35;16.20;51.40
1415;DHT22;702;49.466;11.086;2023-05-19T07:57:02;16.20;52.00
1415;DHT22;702;49.466;11.086;2023-05-19T07:59:30;16.30;51.80
1415;DHT22;702;49.466;11.086;2023-05-19T08:01:59;16.50;51.70
1415;DHT22;702;49.466;11.086;2023-05-19T08:04:26;16.70;51.30
1415;DHT22;702;49.466;11.086;2023-05-19T08:06:53;16.60;51.00
1415;DHT22;702;49.466;11.086;2023-05-19T08:09:20;16.60;50.50
1415;DHT22;702;49.466;11.086;2023-05-19T08:11:48;16.90;50.10
1415;DHT22;702;49.466;11.086;2023-05-19T08:14:16;17.00;49.80
1415;DHT22;702;49.466;11.086;2023-05-19T08:16:45;17.10;50.00
1415;DHT22;702;49.466;11.086;2023-05-19T08:19:14;16.70;50.00
1415;DHT22;702;49.466;11.086;2023-05-19T08:21:41;16.80;49.80
1415;DHT22;702;49.466;11.086;2023-05-19T08:24:09;16.80;50.30
1415;DHT22;702;49.466;11.086;2023-05-19T08:26:37;16.90;50.70
1415;DHT22;702;49.466;11.086;2023-05-19T08:29:04;17.20;50.50
1415;DHT22;702;49.466;11.086;2023-05-19T08:31:31;17.00;49.50
1415;DHT22;702;49.466;11.086;2023-05-19T08:33:59;16.40;50.00
1415;DHT22;702;49.466;11.086;2023-05-19T08:36:27;16.40;50.50
1415;DHT22;702;49.466;11.086;2023-05-19T08:38:55;16.40;49.90
1415;DHT22;702;49.466;11.086;2023-05-19T08:41:22;16.60;50.30
1415;DHT22;702;49.466;11.086;2023-05-19T08:43:49;17.10;50.20
1415;DHT22;702;49.466;11.086;2023-05-19T08:46:16;17.30;49.40
1415;DHT22;702;49.466;11.086;2023-05-19T08:48:44;16.70;49.30
1415;DHT22;702;49.466;11.086;2023-05-19T08:51:19;16.60;49.70
1415;DHT22;702;49.466;11.086;2023-05-19T08:53:52;16.20;49.70
1415;DHT22;702;49.466;11.086;2023-05-19T08:56:24;16.30;50.30
1415;DHT22;702;49.466;11.086;2023-05-19T08:58:53;16.40;49.90
1415;DHT22;702;49.466;11.086;2023-05-19T09:01:21;16.50;50.10
1415;DHT22;702;49.466;11.086;2023-05-19T09:03:49;17.00;50.20
1415;DHT22;702;49.466;11.086;2023-05-19T09:06:18;17.30;49.40
1415;DHT22;702;49.466;11.086;2023-05-19T09:08:46;17.40;49.20
1415;DHT22;702;49.466;11.086;2023-05-19T09:11:14;17.20;49.20
1415;DHT22;702;49.466;11.086;2023-05-19T09:13:41;17.40;49.60
1415;DHT22;702;49.466;11.086;2023-05-19T09:16:10;17.60;49.30
1415;DHT22;702;49.466;11.086;2023-05-19T09:18:38;17.70;49.00
1415;DHT22;702;49.466;11.086;2023-05-19T09:21:05;17.50;49.00
1415;DHT22;702;49.466;11.086;2023-05-19T09:23:34;17.30;49.30
1415;DHT22;702;49.466;11.086;2023-05-19T09:26:03;17.50;49.20
1415;DHT22;702;49.466;11.086;2023-05-19T09:28:35;17.70;49.00
1415;DHT22;702;49.466;11.086;2023-05-19T09:31:03;17.90;49.20
1415;DHT22;702;49.466;11.086;2023-05-19T09:33:33;18.00;49.30
1415;DHT22;702;49.466;11.086;2023-05-19T09:36:02;18.00;49.40
1415;DHT22;702;49.466;11.086;2023-05-19T09:38:31;17.60;48.60
1415;DHT22;702;49.466;11.086;2023-05-19T09:40:59;17.30;49.00
1415;DHT22;702;49.466;11.086;2023-05-19T09:43:27;17.00;49.20
1415;DHT22;702;49.466;11.086;2023-05-19T09:45:59;16.80;49.10
1415;DHT22;702;49.466;11.086;2023-05-19T09:48:28;16.70;49.10
1415;DHT22;702;49.466;11.086;2023-05-19T09:50:56;16.90;49.30
1415;DHT22;702;49.466;11.086;2023-05-19T09:53:23;17.30;49.50
1415;DHT22;702;49.466;11.086;2023-05-19T09:55:54;17.80;48.70
1415;DHT22;702;49.466;11.086;2023-05-19T09:58:23;17.70;48.80
1415;DHT22;702;49.466;11.086;2023-05-19T10:00:52;17.90;48.80
1415;DHT22;702;49.466;11.086;2023-05-19T10:03:22;18.00;48.60
1415;DHT22;702;49.466;11.086;2023-05-19T10:05:50;18.30;48.20
1415;DHT22;702;49.466;11.086;2023-05-19T10:08:19;18.30;47.90
1415;DHT22;702;49.466;11.086;2023-05-19T10:10:46;18.40;47.90
1415;DHT22;702;49.466;11.086;2023-05-19T10:13:14;18.40;48.10
1415;DHT22;702;49.466;11.086;2023-05-19T10:15:42;18.50;47.90
1415;DHT22;702;49.466;11.086;2023-05-19T10:18:11;18.30;47.40
1415;DHT22;702;49.466;11.086;2023-05-19T10:20:40;18.30;47.80
1415;DHT22;702;49.466;11.086;2023-05-19T10:23:08;18.50;48.10
1415;DHT22;702;49.466;11.086;2023-05-19T10:25:36;18.80;47.70
1415;DHT22;702;49.466;11.086;2023-05-19T10:28:07;18.80;47.80
1415;DHT22;702;49.466;11.086;2023-05-19T10:30:37;18.70;48.00
1415;DHT22;702;49.466;11.086;2023-05-19T10:33:08;19.00;47.70
1415;DHT22;702;49.466;11.086;2023-05-19T10:36:01;19.10;47.70
1415;DHT22;702;49.466;11.086;2023-05-19T10:38:41;19.30;47.50
1415;DHT22;702;49.466;11.086;2023-05-19T10:41:20;19.10;48.00
1415;DHT22;702;49.466;11.086;2023-05-19T10:43:58;18.90;47.90
1415;DHT22;702;49.466;11.086;2023-05-19T10:46:30;18.50;48.00
1415;DHT22;702;49.466;11.086;2023-05-19T10:48:58;18.80;47.40
1415;DHT22;702;49.466;11.086;2023-05-19T10:51:29;19.50;47.40
1415;DHT22;702;49.466;11.086;2023-05-19T10:53:57;19.70;46.70
1415;DHT22;702;49.466;11.086;2023-05-19T10:56:28;19.70;46.60
1415;DHT22;702;49.466;11.086;2023-05-19T10:58:59;19.50;46.50
1415;DHT22;702;49.466;11.086;2023-05-19T11:01:31;19.50;46.90
1415;DHT22;702;49.466;11.086;2023-05-19T11:04:04;19.70;46.40
1415;DHT22;702;49.466;11.086;2023-05-19T11:06:35;20.10;46.30
1415;DHT22;702;49.466;11.086;2023-05-19T11:09:10;20.10;46.30
1415;DHT22;702;49.466;11.086;2023-05-19T11:11:45;20.30;46.00
1415;DHT22;702;49.466;11.086;2023-05-19T11:14:14;19.80;46.30
1415;DHT22;702;49.466;11.086;2023-05-19T11:16:46;19.90;46.60
1415;DHT22;702;49.466;11.086;2023-05-19T11:19:17;20.00;46.40
1415;DHT22;702;49.466;11.086;2023-05-19T11:21:51;20.20;46.20
1415;DHT22;702;49.466;11.086;2023-05-19T11:24:32;20.40;45.80
1415;DHT22;702;49.466;11.086;2023-05-19T11:27:18;20.50;45.70
1415;DHT22;702;49.466;11.086;2023-05-19T11:29:47;20.10;45.80
1415;DHT22;702;49.466;11.086;2023-05-19T11:32:16;20.10;46.30
1415;DHT22;702;49.466;11.086;2023-05-19T11:34:44;20.30;45.60
1415;DHT22;702;49.466;11.086;2023-05-19T11:37:13;20.80;45.90
1415;DHT22;702;49.466;11.086;2023-05-19T11:39:40;21.00;45.70
1415;DHT22;702;49.466;11.086;2023-05-19T11:42:08;20.50;45.30
1415;DHT22;702;49.466;11.086;2023-05-19T11:44:36;21.00;45.80
1415;DHT22;702;49.466;11.086;2023-05-19T11:47:05;21.70;45.20
1415;DHT22;702;49.466;11.086;2023-05-19T11:49:33;21.60;45.10
1415;DHT22;702;49.466;11.086;2023-05-19T11:52:01;21.70;45.00
1415;DHT22;702;49.466;11.086;2023-05-19T11:54:31;21.60;45.10
1415;DHT22;702;49.466;11.086;2023-05-19T11:57:01;21.30;44.80
1415;DHT22;702;49.466;11.086;2023-05-19T11:59:30;21.10;44.80
1415;DHT22;702;49.466;11.086;2023-05-19T12:02:01;21.20;44.90
1415;DHT22;702;49.466;11.086;2023-05-19T12:04:29;21.30;44.70
1415;DHT22;702;49.466;11.086;2023-05-19T12:06:57;21.50;45.50
1415;DHT22;702;49.466;11.086;2023-05-19T12:09:24;21.20;44.80
1415;DHT22;702;49.466;11.086;2023-05-19T12:11:55;20.80;44.70
1415;DHT22;702;49.466;11.086;2023-05-19T12:14:25;20.50;45.10
1415;DHT22;702;49.466;11.086;2023-05-19T12:16:56;20.40;45.00
1415;DHT22;702;49.466;11.086;2023-05-19T12:19:24;20.10;45.20
1415;DHT22;702;49.466;11.086;2023-05-19T12:21:53;20.80;45.10
1415;DHT22;702;49.466;11.086;2023-05-19T12:24:21;21.40;45.10
1415;DHT22;702;49.466;11.086;2023-05-19T12:26:48;21.90;44.90
1415;DHT22;702;49.466;11.086;2023-05-19T12:29:16;21.70;44.90
1415;DHT22;702;49.466;11.086;2023-05-19T12:31:45;21.70;44.30
1415;DHT22;702;49.466;11.086;2023-05-19T12:34:14;21.60;44.50
1415;DHT22;702;49.466;11.086;2023-05-19T12:36:41;21.50;44.00
1415;DHT22;702;49.466;11.086;2023-05-19T12:39:09;21.50;44.50
1415;DHT22;702;49.466;11.086;2023-05-19T12:41:36;21.50;44.40
1415;DHT22;702;49.466;11.086;2023-05-19T12:44:13;21.90;44.10
1415;DHT22;702;49.466;11.086;2023-05-19T12:46:42;21.70;44.30
1415;DHT22;702;49.466;11.086;2023-05-19T12:49:09;21.20;44.30
1415;DHT22;702;49.466;11.086;2023-05-19T12:51:37;21.50;44.40
1415;DHT22;702;49.466;11.086;2023-05-19T12:54:05;21.30;44.30
1415;DHT22;702;49.466;11.086;2023-05-19T12:56:33;21.10;44.30
1415;DHT22;702;49.466;11.086;2023-05-19T12:59:00;21.30;44.10
1415;DHT22;702;49.466;11.086;2023-05-19T13:01:28;21.60;44.10
1415;DHT22;702;49.466;11.086;2023-05-19T13:03:57;21.90;44.00
1415;DHT22;702;49.466;11.086;2023-05-19T13:06:25;22.00;43.80
1415;DHT22;702;49.466;11.086;2023-05-19T13:08:52;22.00;43.50
1415;DHT22;702;49.466;11.086;2023-05-19T13:11:20;21.90;43.60
1415;DHT22;702;49.466;11.086;2023-05-19T13:13:47;22.20;43.60
1415;DHT22;702;49.466;11.086;2023-05-19T13:16:17;22.50;44.10
1415;DHT22;702;49.466;11.086;2023-05-19T13:18:44;23.10;43.60
1415;DHT22;702;49.466;11.086;2023-05-19T13:21:13;23.00;43.60
1415;DHT22;702;49.466;11.086;2023-05-19T13:23:40;22.60;43.20
1415;DHT22;702;49.466;11.086;2023-05-19T13:26:08;22.60;43.60
1415;DHT22;702;49.466;11.086;2023-05-19T13:28:37;22.90;43.10
1415;DHT22;702;49.466;11.086;2023-05-19T13:31:04;22.50;43.50
1415;DHT22;702;49.466;11.086;2023-05-19T13:33:32;22.50;43.20
1415;DHT22;702;49.466;11.086;2023-05-19T13:35:59;22.90;42.80
1415;DHT22;702;49.466;11.086;2023-05-19T13:38:28;23.00;43.00
1415;DHT22;702;49.466;11.086;2023-05-19T13:40:56;22.90;43.00
1415;DHT22;702;49.466;11.086;2023-05-19T13:43:23;22.30;42.40
1415;DHT22;702;49.466;11.086;2023-05-19T13:45:50;21.80;43.00
1415;DHT22;702;49.466;11.086;2023-05-19T13:48:17;22.20;43.10
1415;DHT22;702;49.466;11.086;2023-05-19T13:50:45;22.40;43.30
1415;DHT22;702;49.466;11.086;2023-05-19T13:53:12;22.50;43.10
1415;DHT22;702;49.466;11.086;2023-05-19T13:55:40;22.40;42.70
1415;DHT22;702;49.466;11.086;2023-05-19T13:58:09;22.50;42.70
1415;DHT22;702;49.466;11.086;2023-05-19T14:00:39;22.70;42.80
1415;DHT22;702;49.466;11.086;2023-05-19T14:03:07;22.80;42.60
1415;DHT22;702;49.466;11.086;2023-05-19T14:05:34;22.30;42.20
1415;DHT22;702;49.466;11.086;2023-05-19T14:08:01;22.00;42.80
1415;DHT22;702;49.466;11.086;2023-05-19T14:10:30;22.00;42.80
1415;DHT22;702;49.466;11.086;2023-05-19T14:12:59;22.10;42.40
1415;DHT22;702;49.466;11.086;2023-05-19T14:15:26;22.00;42.20
1415;DHT22;702;49.466;11.086;2023-05-19T14:17:53;21.60;42.30
1415;DHT22;702;49.466;11.086;2023-05-19T14:20:21;21.30;42.70
1415;DHT22;702;49.466;11.086;2023-05-19T14:22:48;20.90;42.90
1415;DHT22;702;49.466;11.086;2023-05-19T14:25:15;20.90;43.20
1415;DHT22;702;49.466;11.086;2023-05-19T14:27:42;21.20;43.30
1415;DHT22;702;49.466;11.086;2023-05-19T14:30:11;21.90;43.40
1415;DHT22;702;49.466;11.086;2023-05-19T14:32:39;22.50;42.80
1415;DHT22;702;49.466;11.086;2023-05-19T14:35:06;22.60;42.60
1415;DHT22;702;49.466;11.086;2023-05-19T14:37:34;22.60;42.50
1415;DHT22;702;49.466;11.086;2023-05-19T14:40:03;22.80;42.80
1415;DHT22;702;49.466;11.086;2023-05-19T14:42:31;22.80;43.40
1415;DHT22;702;49.466;11.086;2023-05-19T14:44:58;22.80;42.60
1415;DHT22;702;49.466;11.086;2023-05-19T14:47:27;22.50;43.00
1415;DHT22;702;49.466;11.086;2023-05-19T14:49:54;22.10;42.70
1415;DHT22;702;49.466;11.086;2023-05-19T14:52:21;22.00;43.00
1415;DHT22;702;49.466;11.086;2023-05-19T14:54:49;21.80;43.10
1415;DHT22;702;49.466;11.086;2023-05-19T14:57:16;21.90;42.90
1415;DHT22;702;49.466;11.086;2023-05-19T14:59:43;22.00;43.10
1415;DHT22;702;49.466;11.086;2023-05-19T15:02:10;21.90;43.00
1415;DHT22;702;49.466;11.086;2023-05-19T15:04:39;22.00;43.00
1415;DHT22;702;49.466;11.086;2023-05-19T15:07:06;22.00;42.80
1415;DHT22;702;49.466;11.086;2023-05-19T15:09:33;21.80;42.80
1415;DHT22;702;49.466;11.086;2023-05-19T15:12:00;21.60;43.20
1415;DHT22;702;49.466;11.086;2023-05-19T15:14:28;21.60;43.30
1415;DHT22;702;49.466;11.086;2023-05-19T15:16:55;21.50;43.30
1415;DHT22;702;49.466;11.086;2023-05-19T15:19:23;21.40;43.60
1415;DHT22;702;49.466;11.086;2023-05-19T15:21:51;21.20;43.60
1415;DHT22;702;49.466;11.086;2023-05-19T15:24:19;21.10;44.10
1415;DHT22;702;49.466;11.086;2023-05-19T15:26:46;20.90;44.30
1415;DHT22;702;49.466;11.086;2023-05-19T15:29:14;20.80;44.60
1415;DHT22;702;49.466;11.086;2023-05-19T15:31:41;20.50;44.70
1415;DHT22;702;49.466;11.086;2023-05-19T15:34:08;20.70;45.00
1415;DHT22;702;49.466;11.086;2023-05-19T15:36:35;20.70;44.70
1415;DHT22;702;49.466;11.086;2023-05-19T15:39:04;21.00;44.90
1415;DHT22;702;49.466;11.086;2023-05-19T15:41:31;21.20;44.70
1415;DHT22;702;49.466;11.086;2023-05-19T15:43:59;21.20;44.70
1415;DHT22;702;49.466;11.086;2023-05-19T15:46:27;21.10;44.70
1415;DHT22;702;49.466;11.086;2023-05-19T15:48:54;20.90;45.10
1415;DHT22;702;49.466;11.086;2023-05-19T15:51:21;20.50;45.70
1415;DHT22;702;49.466;11.086;2023-05-19T15:53:49;20.20;45.90
1415;DHT22;702;49.466;11.086;2023-05-19T15:56:18;20.10;46.20
1415;DHT22;702;49.466;11.086;2023-05-19T15:58:46;19.90;46.50
1415;DHT22;702;49.466;11.086;2023-05-19T16:01:14;19.90;46.50
1415;DHT22;702;49.466;11.086;2023-05-19T16:03:42;19.80;46.70
1415;DHT22;702;49.466;11.086;2023-05-19T16:06:09;19.70;46.80
1415;DHT22;702;49.466;11.086;2023-05-19T16:08:36;19.50;47.00
1415;DHT22;702;49.466;11.086;2023-05-19T16:11:04;19.60;46.70
1415;DHT22;702;49.466;11.086;2023-05-19T16:13:33;19.70;46.80
1415;DHT22;702;49.466;11.086;2023-05-19T16:16:01;19.70;46.70